Watauga Observed Data For Previous 48 Hours

Caption
Day and Hour Reservoir Elevation (behind dam)* Tailwater Elevation (below dam)* Average Hourly Discharge*
3/22/2019 2 AM EDT 1,954.18 1,648.01 76
3/22/2019 3 AM EDT 1,954.18 1,647.54 0
3/22/2019 4 AM EDT 1,954.18 1,647.28 0
3/22/2019 5 AM EDT 1,954.18 1,647.16 0
3/22/2019 6 AM EDT 1,954.20 1,647.31 0
3/22/2019 7 AM EDT 1,954.20 1,649.84 1,256
3/22/2019 8 AM EDT 1,954.20 1,649.86 1,280
3/22/2019 9 AM EDT 1,954.20 1,649.86 1,290
3/22/2019 10 AM EDT 1,954.20 1,650.15 1,393
3/22/2019 11 AM EDT 1,954.18 1,650.15 1,501
3/22/2019 12 PM EDT 1,954.18 1,650.13 1,498
3/22/2019 1 PM EDT 1,954.18 1,647.13 75
3/22/2019 2 PM EDT 1,954.18 1,647.13 0
3/22/2019 3 PM EDT 1,954.18 1,647.12 0
3/22/2019 4 PM EDT 1,954.20 1,647.12 0
3/22/2019 5 PM EDT 1,954.21 1,647.11 0
3/22/2019 6 PM EDT 1,954.21 1,649.81 1,159
3/22/2019 7 PM EDT 1,954.21 1,649.83 1,281
3/22/2019 8 PM EDT 1,954.20 1,649.82 1,286
3/22/2019 9 PM EDT 1,954.20 1,650.27 1,547
3/22/2019 10 PM EDT 1,954.18 1,650.24 1,552
3/22/2019 11 PM EDT 1,954.18 1,650.30 1,560
3/23/2019 12 AM EDT 1,954.15 1,650.28 1,555
3/23/2019 1 AM EDT 1,954.15 1,650.42 1,556
3/23/2019 2 AM EDT 1,954.15 1,649.02 81
3/23/2019 3 AM EDT 1,954.15 1,648.62 0
3/23/2019 4 AM EDT 1,954.15 1,648.36 0
3/23/2019 5 AM EDT 1,954.15 1,648.00 0
3/23/2019 6 AM EDT 1,954.16 1,647.64 0
3/23/2019 7 AM EDT 1,954.18 1,647.34 0
3/23/2019 8 AM EDT 1,954.18 1,649.89 1,162
3/23/2019 9 AM EDT 1,954.18 1,650.09 1,282
3/23/2019 10 AM EDT 1,954.18 1,649.06 588
3/23/2019 11 AM EDT 1,954.18 1,648.64 0
3/23/2019 12 PM EDT 1,954.18 1,648.32 0
3/23/2019 1 PM EDT 1,954.20 1,647.94 0
3/23/2019 2 PM EDT 1,954.20 1,647.58 0
3/23/2019 3 PM EDT 1,954.21 1,647.28 0
3/23/2019 4 PM EDT 1,954.21 1,647.15 0
3/23/2019 5 PM EDT 1,954.22 1,647.13 0
3/23/2019 6 PM EDT 1,954.22 1,647.13 0
3/23/2019 7 PM EDT 1,954.24 1,647.14 0
3/23/2019 8 PM EDT 1,954.25 1,647.28 0
3/23/2019 9 PM EDT 1,954.25 1,649.86 1,262
3/23/2019 10 PM EDT 1,954.25 1,649.86 1,283
3/23/2019 11 PM EDT 1,954.25 1,647.65 52
3/24/2019 12 AM EDT 1,954.27 1,647.30 0
3/24/2019 1 AM EDT 1,954.27 1,647.16 0

Elevations are in feet above sea level. Discharges are in cubic feet per second and are reported at the end of the hour.